sensor_id;sensor_type;location;lat;lon;timestamp;pressure;altitude;pressure_sealevel;temperature;humidity
36386;BME280;24125;47.482;8.770;2022-11-20T00:02:17;95865.41;;;7.17;71.84
36386;BME280;24125;47.482;8.770;2022-11-20T00:04:50;95871.81;;;7.16;71.82
36386;BME280;24125;47.482;8.770;2022-11-20T00:07:23;95865.22;;;7.13;71.97
36386;BME280;24125;47.482;8.770;2022-11-20T00:09:56;95878.50;;;7.13;72.56
36386;BME280;24125;47.482;8.770;2022-11-20T00:12:28;95874.75;;;7.14;72.94
36386;BME280;24125;47.482;8.770;2022-11-20T00:15:03;95881.00;;;7.18;73.96
36386;BME280;24125;47.482;8.770;2022-11-20T00:17:36;95870.56;;;7.22;74.03
36386;BME280;24125;47.482;8.770;2022-11-20T00:20:11;95873.22;;;7.31;74.01
36386;BME280;24125;47.482;8.770;2022-11-20T00:22:44;95878.06;;;7.37;74.76
36386;BME280;24125;47.482;8.770;2022-11-20T00:25:17;95874.31;;;7.47;75.38
36386;BME280;24125;47.482;8.770;2022-11-20T00:27:50;95887.59;;;7.55;74.70
36386;BME280;24125;47.482;8.770;2022-11-20T00:30:24;95886.19;;;7.67;75.12
36386;BME280;24125;47.482;8.770;2022-11-20T00:32:57;95881.66;;;7.76;75.51
36386;BME280;24125;47.482;8.770;2022-11-20T00:35:30;95881.78;;;7.88;75.30
36386;BME280;24125;47.482;8.770;2022-11-20T00:38:03;95889.91;;;8.00;75.49
36386;BME280;24125;47.482;8.770;2022-11-20T00:40:36;95885.84;;;8.11;75.16
36386;BME280;24125;47.482;8.770;2022-11-20T00:43:08;95879.41;;;8.21;75.38
36386;BME280;24125;47.482;8.770;2022-11-20T00:45:43;95885.19;;;8.31;75.50
36386;BME280;24125;47.482;8.770;2022-11-20T00:48:16;95885.50;;;8.39;74.57
36386;BME280;24125;47.482;8.770;2022-11-20T00:50:49;95897.66;;;8.48;74.71
36386;BME280;24125;47.482;8.770;2022-11-20T00:53:21;95889.97;;;8.55;74.59
36386;BME280;24125;47.482;8.770;2022-11-20T00:55:55;95886.03;;;8.61;74.84
36386;BME280;24125;47.482;8.770;2022-11-20T00:58:29;95892.44;;;8.69;74.68
36386;BME280;24125;47.482;8.770;2022-11-20T01:01:05;95901.16;;;8.78;74.45
36386;BME280;24125;47.482;8.770;2022-11-20T01:03:41;95893.31;;;8.82;74.45
36386;BME280;24125;47.482;8.770;2022-11-20T01:06:16;95896.25;;;8.89;74.09
36386;BME280;24125;47.482;8.770;2022-11-20T01:08:50;95888.09;;;8.94;74.18
36386;BME280;24125;47.482;8.770;2022-11-20T01:11:25;95894.78;;;9.00;73.83
36386;BME280;24125;47.482;8.770;2022-11-20T01:14:00;95898.84;;;9.06;73.06
36386;BME280;24125;47.482;8.770;2022-11-20T01:16:37;95898.19;;;9.09;73.16
36386;BME280;24125;47.482;8.770;2022-11-20T01:19:13;95886.00;;;9.08;73.07
36386;BME280;24125;47.482;8.770;2022-11-20T01:21:51;95891.75;;;9.10;72.71
36386;BME280;24125;47.482;8.770;2022-11-20T01:24:24;95897.06;;;9.10;73.12
36386;BME280;24125;47.482;8.770;2022-11-20T01:26:57;95907.41;;;9.12;73.23
36386;BME280;24125;47.482;8.770;2022-11-20T01:29:30;95908.50;;;9.11;73.29
36386;BME280;24125;47.482;8.770;2022-11-20T01:32:04;95903.97;;;9.11;73.11
36386;BME280;24125;47.482;8.770;2022-11-20T01:34:37;95906.31;;;9.13;73.35
36386;BME280;24125;47.482;8.770;2022-11-20T01:37:10;95902.88;;;9.12;73.08
36386;BME280;24125;47.482;8.770;2022-11-20T01:39:43;95912.41;;;9.13;72.99
36386;BME280;24125;47.482;8.770;2022-11-20T01:42:16;95909.44;;;9.15;73.12
36386;BME280;24125;47.482;8.770;2022-11-20T01:48:14;95915.34;;;9.20;73.71
36386;BME280;24125;47.482;8.770;2022-11-20T01:50:48;95914.72;;;9.23;73.78
36386;BME280;24125;47.482;8.770;2022-11-20T01:53:24;95921.41;;;9.29;73.99
36386;BME280;24125;47.482;8.770;2022-11-20T01:56:00;95916.56;;;9.31;73.96
36386;BME280;24125;47.482;8.770;2022-11-20T01:58:37;95919.81;;;9.37;73.89
36386;BME280;24125;47.482;8.770;2022-11-20T02:01:10;95919.16;;;9.40;74.02
36386;BME280;24125;47.482;8.770;2022-11-20T02:03:46;95921.63;;;9.45;73.59
36386;BME280;24125;47.482;8.770;2022-11-20T02:06:23;95911.13;;;9.49;73.70
36386;BME280;24125;47.482;8.770;2022-11-20T02:08:56;95914.56;;;9.49;73.45
36386;BME280;24125;47.482;8.770;2022-11-20T02:11:30;95911.69;;;9.54;73.41
36386;BME280;24125;47.482;8.770;2022-11-20T02:14:03;95906.81;;;9.56;73.58
36386;BME280;24125;47.482;8.770;2022-11-20T02:16:37;95910.06;;;9.62;73.57
36386;BME280;24125;47.482;8.770;2022-11-20T02:19:21;95903.31;;;9.64;73.35
36386;BME280;24125;47.482;8.770;2022-11-20T02:22:00;95911.44;;;9.68;73.22
36386;BME280;24125;47.482;8.770;2022-11-20T02:24:36;95914.22;;;9.71;73.14
36386;BME280;24125;47.482;8.770;2022-11-20T02:27:10;95926.13;;;9.74;73.34
36386;BME280;24125;47.482;8.770;2022-11-20T02:29:47;95932.38;;;9.78;73.46
36386;BME280;24125;47.482;8.770;2022-11-20T02:32:22;95916.03;;;9.79;73.52
36386;BME280;24125;47.482;8.770;2022-11-20T02:34:55;95918.84;;;9.83;72.93
36386;BME280;24125;47.482;8.770;2022-11-20T02:37:32;95917.75;;;9.84;72.59
36386;BME280;24125;47.482;8.770;2022-11-20T02:40:09;95923.19;;;9.88;72.89
36386;BME280;24125;47.482;8.770;2022-11-20T02:42:42;95915.66;;;9.90;72.94
36386;BME280;24125;47.482;8.770;2022-11-20T02:45:14;95916.91;;;9.92;73.05
36386;BME280;24125;47.482;8.770;2022-11-20T02:47:47;95919.69;;;9.96;72.73
36386;BME280;24125;47.482;8.770;2022-11-20T02:50:21;95919.81;;;9.99;72.42
36386;BME280;24125;47.482;8.770;2022-11-20T02:52:53;95917.59;;;10.01;72.42
36386;BME280;24125;47.482;8.770;2022-11-20T02:55:28;95922.28;;;10.04;72.27
36386;BME280;24125;47.482;8.770;2022-11-20T02:58:01;95920.38;;;10.05;72.27
36386;BME280;24125;47.482;8.770;2022-11-20T03:00:34;95924.63;;;10.06;72.20
36386;BME280;24125;47.482;8.770;2022-11-20T03:03:07;95917.06;;;10.08;71.63
36386;BME280;24125;47.482;8.770;2022-11-20T03:05:40;95918.31;;;10.10;71.99
36386;BME280;24125;47.482;8.770;2022-11-20T03:08:13;95924.06;;;10.12;72.14
36386;BME280;24125;47.482;8.770;2022-11-20T03:10:47;95920.31;;;10.13;71.89
36386;BME280;24125;47.482;8.770;2022-11-20T03:13:20;95926.09;;;10.15;72.07
36386;BME280;24125;47.482;8.770;2022-11-20T03:15:53;95911.97;;;10.15;72.12
36386;BME280;24125;47.482;8.770;2022-11-20T03:18:27;95915.91;;;10.17;71.92
36386;BME280;24125;47.482;8.770;2022-11-20T03:21:01;95917.47;;;10.18;72.04
36386;BME280;24125;47.482;8.770;2022-11-20T03:23:35;95914.03;;;10.18;71.84
36386;BME280;24125;47.482;8.770;2022-11-20T03:26:12;95920.56;;;10.20;71.65
36386;BME280;24125;47.482;8.770;2022-11-20T03:28:47;95913.72;;;10.19;71.48
36386;BME280;24125;47.482;8.770;2022-11-20T03:31:21;95912.56;;;10.20;71.95
36386;BME280;24125;47.482;8.770;2022-11-20T03:33:56;95920.56;;;10.20;71.39
36386;BME280;24125;47.482;8.770;2022-11-20T03:36:29;95910.25;;;10.19;71.21
36386;BME280;24125;47.482;8.770;2022-11-20T03:39:02;95911.81;;;10.20;71.72
36386;BME280;24125;47.482;8.770;2022-11-20T03:41:38;95922.59;;;10.24;71.33
36386;BME280;24125;47.482;8.770;2022-11-20T03:44:11;95917.25;;;10.24;71.33
36386;BME280;24125;47.482;8.770;2022-11-20T03:46:44;95927.47;;;10.21;71.06
36386;BME280;24125;47.482;8.770;2022-11-20T03:49:17;95926.06;;;10.24;70.91
36386;BME280;24125;47.482;8.770;2022-11-20T03:51:50;95925.25;;;10.24;71.56
36386;BME280;24125;47.482;8.770;2022-11-20T03:54:23;95921.50;;;10.25;71.30
36386;BME280;24125;47.482;8.770;2022-11-20T03:56:57;95923.06;;;10.26;71.21
36386;BME280;24125;47.482;8.770;2022-11-20T03:59:30;95934.50;;;10.26;71.48
36386;BME280;24125;47.482;8.770;2022-11-20T04:02:03;95930.75;;;10.27;70.94
36386;BME280;24125;47.482;8.770;2022-11-20T04:04:36;95930.75;;;10.27;71.07
36386;BME280;24125;47.482;8.770;2022-11-20T04:07:09;95928.84;;;10.28;71.13
36386;BME280;24125;47.482;8.770;2022-11-20T04:09:42;95929.63;;;10.28;70.85
36386;BME280;24125;47.482;8.770;2022-11-20T04:12:16;95937.28;;;10.30;71.24
36386;BME280;24125;47.482;8.770;2022-11-20T04:14:49;95926.63;;;10.30;70.55
36386;BME280;24125;47.482;8.770;2022-11-20T04:17:22;95932.72;;;10.30;70.80
36386;BME280;24125;47.482;8.770;2022-11-20T04:19:55;95931.94;;;10.30;70.66
36386;BME280;24125;47.482;8.770;2022-11-20T04:22:28;95926.19;;;10.28;70.82
36386;BME280;24125;47.482;8.770;2022-11-20T04:25:01;95929.97;;;10.27;70.81
36386;BME280;24125;47.482;8.770;2022-11-20T04:27:35;95930.28;;;10.25;70.20
36386;BME280;24125;47.482;8.770;2022-11-20T04:30:09;95930.16;;;10.21;70.55
36386;BME280;24125;47.482;8.770;2022-11-20T04:32:42;95918.25;;;10.19;70.30
36386;BME280;24125;47.482;8.770;2022-11-20T04:35:15;95918.41;;;10.14;70.48
36386;BME280;24125;47.482;8.770;2022-11-20T04:37:51;95920.31;;;10.13;70.39
36386;BME280;24125;47.482;8.770;2022-11-20T04:40:24;95927.41;;;10.09;70.26
36386;BME280;24125;47.482;8.770;2022-11-20T04:42:58;95924.75;;;10.09;70.42
36386;BME280;24125;47.482;8.770;2022-11-20T04:45:31;95928.84;;;10.07;70.63
36386;BME280;24125;47.482;8.770;2022-11-20T04:48:04;95926.50;;;10.05;70.67
36386;BME280;24125;47.482;8.770;2022-11-20T04:50:39;95921.63;;;10.07;71.23
36386;BME280;24125;47.482;8.770;2022-11-20T04:53:13;95909.72;;;10.05;70.93
36386;BME280;24125;47.482;8.770;2022-11-20T04:55:46;95909.72;;;10.05;69.94
36386;BME280;24125;47.482;8.770;2022-11-20T04:58:22;95911.59;;;10.04;69.63
36386;BME280;24125;47.482;8.770;2022-11-20T05:01:01;95906.03;;;9.97;68.85
36386;BME280;24125;47.482;8.770;2022-11-20T05:03:34;95908.75;;;9.89;68.59
36386;BME280;24125;47.482;8.770;2022-11-20T05:06:14;95914.63;;;9.82;68.55
36386;BME280;24125;47.482;8.770;2022-11-20T05:08:47;95914.56;;;9.70;68.70
36386;BME280;24125;47.482;8.770;2022-11-20T05:11:21;95912.28;;;9.60;68.88
36386;BME280;24125;47.482;8.770;2022-11-20T05:13:58;95915.03;;;9.51;68.78
36386;BME280;24125;47.482;8.770;2022-11-20T05:16:34;95911.16;;;9.40;68.98
36386;BME280;24125;47.482;8.770;2022-11-20T05:19:07;95921.41;;;9.29;69.08
36386;BME280;24125;47.482;8.770;2022-11-20T05:21:40;95919.13;;;9.19;68.74
36386;BME280;24125;47.482;8.770;2022-11-20T05:24:13;95916.50;;;9.11;68.57
36386;BME280;24125;47.482;8.770;2022-11-20T05:26:46;95914.97;;;9.01;68.77
36386;BME280;24125;47.482;8.770;2022-11-20T05:29:20;95915.81;;;8.93;68.41
36386;BME280;24125;47.482;8.770;2022-11-20T05:31:53;95925.59;;;8.80;69.02
36386;BME280;24125;47.482;8.770;2022-11-20T05:34:26;95924.84;;;8.71;68.92
36386;BME280;24125;47.482;8.770;2022-11-20T05:36:59;95927.06;;;8.60;69.57
36386;BME280;24125;47.482;8.770;2022-11-20T05:39:32;95928.97;;;8.51;69.94
36386;BME280;24125;47.482;8.770;2022-11-20T05:42:05;95925.22;;;8.44;70.68
36386;BME280;24125;47.482;8.770;2022-11-20T05:44:57;95929.94;;;8.38;70.57
36386;BME280;24125;47.482;8.770;2022-11-20T05:47:32;95923.38;;;8.36;71.68
36386;BME280;24125;47.482;8.770;2022-11-20T05:50:06;95931.66;;;8.34;71.42
36386;BME280;24125;47.482;8.770;2022-11-20T05:52:39;95935.88;;;8.35;72.10
36386;BME280;24125;47.482;8.770;2022-11-20T05:55:12;95934.47;;;8.38;72.71
36386;BME280;24125;47.482;8.770;2022-11-20T05:57:45;95936.78;;;8.39;72.78
36386;BME280;24125;47.482;8.770;2022-11-20T06:00:19;95940.09;;;8.45;72.90
36386;BME280;24125;47.482;8.770;2022-11-20T06:02:52;95938.34;;;8.49;73.19
36386;BME280;24125;47.482;8.770;2022-11-20T06:05:25;95936.63;;;8.53;73.08
36386;BME280;24125;47.482;8.770;2022-11-20T06:08:00;95943.50;;;8.62;73.32
36386;BME280;24125;47.482;8.770;2022-11-20T06:10:33;95945.97;;;8.67;73.61
36386;BME280;24125;47.482;8.770;2022-11-20T06:13:05;95938.25;;;8.75;73.60
36386;BME280;24125;47.482;8.770;2022-11-20T06:15:41;95949.66;;;8.84;73.25
36386;BME280;24125;47.482;8.770;2022-11-20T06:18:13;95946.97;;;8.92;73.66
36386;BME280;24125;47.482;8.770;2022-11-20T06:20:46;95947.25;;;8.99;73.64
36386;BME280;24125;47.482;8.770;2022-11-20T06:23:19;95948.00;;;9.08;73.69
36386;BME280;24125;47.482;8.770;2022-11-20T06:25:52;95945.63;;;9.16;73.26
36386;BME280;24125;47.482;8.770;2022-11-20T06:28:25;95945.44;;;9.21;73.21
36386;BME280;24125;47.482;8.770;2022-11-20T06:30:59;95948.06;;;9.29;73.23
36386;BME280;24125;47.482;8.770;2022-11-20T06:33:33;95955.53;;;9.36;73.43
36386;BME280;24125;47.482;8.770;2022-11-20T06:36:06;95954.25;;;9.42;73.15
36386;BME280;24125;47.482;8.770;2022-11-20T06:38:42;95957.19;;;9.49;73.61
36386;BME280;24125;47.482;8.770;2022-11-20T06:41:17;95961.22;;;9.55;73.57
36386;BME280;24125;47.482;8.770;2022-11-20T06:43:51;95956.81;;;9.59;72.96
36386;BME280;24125;47.482;8.770;2022-11-20T06:46:26;95965.09;;;9.66;72.53
36386;BME280;24125;47.482;8.770;2022-11-20T06:48:58;95962.53;;;9.70;72.42
36386;BME280;24125;47.482;8.770;2022-11-20T06:51:32;95960.34;;;9.72;72.42
36386;BME280;24125;47.482;8.770;2022-11-20T06:54:05;95947.16;;;9.75;72.19
36386;BME280;24125;47.482;8.770;2022-11-20T06:56:37;95966.25;;;9.77;72.11
36386;BME280;24125;47.482;8.770;2022-11-20T06:59:10;95970.94;;;9.80;72.49
36386;BME280;24125;47.482;8.770;2022-11-20T07:01:45;95969.19;;;9.84;72.60
36386;BME280;24125;47.482;8.770;2022-11-20T07:04:17;95963.50;;;9.86;72.69
36386;BME280;24125;47.482;8.770;2022-11-20T07:06:50;95968.66;;;9.91;72.15
36386;BME280;24125;47.482;8.770;2022-11-20T07:09:23;95971.44;;;9.95;72.08
36386;BME280;24125;47.482;8.770;2022-11-20T07:11:57;95970.34;;;9.96;72.28
36386;BME280;24125;47.482;8.770;2022-11-20T07:14:30;95975.81;;;9.99;71.62
36386;BME280;24125;47.482;8.770;2022-11-20T07:17:04;95970.94;;;10.01;71.77
36386;BME280;24125;47.482;8.770;2022-11-20T07:19:37;95972.16;;;10.04;71.42
36386;BME280;24125;47.482;8.770;2022-11-20T07:22:10;95984.41;;;10.05;71.66
36386;BME280;24125;47.482;8.770;2022-11-20T07:24:43;95989.41;;;10.06;71.76
36386;BME280;24125;47.482;8.770;2022-11-20T07:27:16;95986.75;;;10.06;71.56
36386;BME280;24125;47.482;8.770;2022-11-20T07:29:49;95990.66;;;10.09;71.84
36386;BME280;24125;47.482;8.770;2022-11-20T07:32:23;95992.66;;;10.12;71.71
36386;BME280;24125;47.482;8.770;2022-11-20T07:34:56;95989.34;;;10.15;71.83
36386;BME280;24125;47.482;8.770;2022-11-20T07:37:30;95986.34;;;10.16;71.79
36386;BME280;24125;47.482;8.770;2022-11-20T07:40:04;95995.28;;;10.20;71.67
36386;BME280;24125;47.482;8.770;2022-11-20T07:42:37;95993.84;;;10.23;71.93
36386;BME280;24125;47.482;8.770;2022-11-20T07:45:10;95992.44;;;10.26;72.20
36386;BME280;24125;47.482;8.770;2022-11-20T07:47:44;95988.75;;;10.30;72.25
36386;BME280;24125;47.482;8.770;2022-11-20T07:50:17;95993.59;;;10.37;72.12
36386;BME280;24125;47.482;8.770;2022-11-20T07:52:50;95994.16;;;10.42;72.05
36386;BME280;24125;47.482;8.770;2022-11-20T07:55:24;95992.53;;;10.50;72.06
36386;BME280;24125;47.482;8.770;2022-11-20T07:57:57;95991.97;;;10.56;72.53
36386;BME280;24125;47.482;8.770;2022-11-20T08:00:30;95986.56;;;10.65;71.82
36386;BME280;24125;47.482;8.770;2022-11-20T08:03:05;95980.00;;;10.75;71.89
36386;BME280;24125;47.482;8.770;2022-11-20T08:05:38;95989.03;;;10.82;71.73
36386;BME280;24125;47.482;8.770;2022-11-20T08:08:11;95985.16;;;10.92;72.00
36386;BME280;24125;47.482;8.770;2022-11-20T08:10:44;95989.63;;;11.00;72.39
36386;BME280;24125;47.482;8.770;2022-11-20T08:13:17;95993.78;;;11.10;72.14
36386;BME280;24125;47.482;8.770;2022-11-20T08:16:07;95994.13;;;11.20;71.63
36386;BME280;24125;47.482;8.770;2022-11-20T08:18:41;96000.59;;;11.31;71.00
36386;BME280;24125;47.482;8.770;2022-11-20T08:21:14;96002.72;;;11.38;71.14
36386;BME280;24125;47.482;8.770;2022-11-20T08:23:47;96003.72;;;11.46;70.95
36386;BME280;24125;47.482;8.770;2022-11-20T08:26:21;95995.91;;;11.53;70.96
36386;BME280;24125;47.482;8.770;2022-11-20T08:28:55;96002.25;;;11.60;71.10
36386;BME280;24125;47.482;8.770;2022-11-20T08:31:28;96004.72;;;11.65;70.95
36386;BME280;24125;47.482;8.770;2022-11-20T08:34:02;96001.78;;;11.70;69.87
36386;BME280;24125;47.482;8.770;2022-11-20T08:36:39;96000.84;;;11.75;70.06
36386;BME280;24125;47.482;8.770;2022-11-20T08:39:13;96007.84;;;11.80;69.15
36386;BME280;24125;47.482;8.770;2022-11-20T08:41:46;95997.59;;;11.82;68.84
36386;BME280;24125;47.482;8.770;2022-11-20T08:44:18;95997.59;;;11.82;68.39
36386;BME280;24125;47.482;8.770;2022-11-20T08:46:51;96000.91;;;11.79;67.41
36386;BME280;24125;47.482;8.770;2022-11-20T08:49:25;96004.59;;;11.74;67.22
36386;BME280;24125;47.482;8.770;2022-11-20T08:51:58;95999.81;;;11.67;66.94
36386;BME280;24125;47.482;8.770;2022-11-20T08:54:31;96004.13;;;11.60;67.55
36386;BME280;24125;47.482;8.770;2022-11-20T08:57:04;96005.81;;;11.52;67.29
36386;BME280;24125;47.482;8.770;2022-11-20T08:59:37;96006.72;;;11.44;67.95
36386;BME280;24125;47.482;8.770;2022-11-20T09:02:30;96003.50;;;11.39;68.51
36386;BME280;24125;47.482;8.770;2022-11-20T09:05:06;96003.81;;;11.37;68.49
36386;BME280;24125;47.482;8.770;2022-11-20T09:07:39;96004.16;;;11.35;69.69
36386;BME280;24125;47.482;8.770;2022-11-20T09:10:12;96010.41;;;11.40;69.65
36386;BME280;24125;47.482;8.770;2022-11-20T09:13:00;96012.84;;;11.45;69.86
36386;BME280;24125;47.482;8.770;2022-11-20T09:15:34;96013.84;;;11.52;70.13
36386;BME280;24125;47.482;8.770;2022-11-20T09:18:06;96018.97;;;11.57;69.25
36386;BME280;24125;47.482;8.770;2022-11-20T09:20:41;96005.03;;;11.64;69.32
36386;BME280;24125;47.482;8.770;2022-11-20T09:23:15;96003.34;;;11.71;69.74
36386;BME280;24125;47.482;8.770;2022-11-20T09:25:48;95994.47;;;11.80;69.93
36386;BME280;24125;47.482;8.770;2022-11-20T09:28:21;96009.38;;;11.93;70.10
36386;BME280;24125;47.482;8.770;2022-11-20T09:30:54;96005.44;;;12.02;69.64
36386;BME280;24125;47.482;8.770;2022-11-20T09:33:27;95996.94;;;12.13;69.28
36386;BME280;24125;47.482;8.770;2022-11-20T09:36:02;96004.63;;;12.26;69.14
36386;BME280;24125;47.482;8.770;2022-11-20T09:38:35;95991.09;;;12.35;69.05
36386;BME280;24125;47.482;8.770;2022-11-20T09:41:23;95999.84;;;12.47;69.69
36386;BME280;24125;47.482;8.770;2022-11-20T09:44:06;95999.38;;;12.58;68.55
36386;BME280;24125;47.482;8.770;2022-11-20T09:46:49;95994.63;;;12.67;68.19
36386;BME280;24125;47.482;8.770;2022-11-20T09:49:32;96002.50;;;12.75;67.49
36386;BME280;24125;47.482;8.770;2022-11-20T09:52:19;96006.06;;;12.79;67.25
36386;BME280;24125;47.482;8.770;2022-11-20T09:54:54;95998.13;;;12.83;67.32
36386;BME280;24125;47.482;8.770;2022-11-20T09:57:32;96010.50;;;12.88;67.04
36386;BME280;24125;47.482;8.770;2022-11-20T10:00:10;96015.94;;;12.91;67.20
36386;BME280;24125;47.482;8.770;2022-11-20T10:02:47;96019.06;;;12.93;67.20
36386;BME280;24125;47.482;8.770;2022-11-20T10:05:25;96021.41;;;12.95;66.24
36386;BME280;24125;47.482;8.770;2022-11-20T10:08:10;96014.22;;;12.99;66.25
36386;BME280;24125;47.482;8.770;2022-11-20T10:10:51;96012.75;;;13.01;66.36
36386;BME280;24125;47.482;8.770;2022-11-20T10:13:36;96008.69;;;13.07;67.25
36386;BME280;24125;47.482;8.770;2022-11-20T10:16:21;95999.06;;;13.18;67.65
36386;BME280;24125;47.482;8.770;2022-11-20T10:19:11;96010.81;;;13.30;67.32
36386;BME280;24125;47.482;8.770;2022-11-20T10:21:55;96010.31;;;13.40;66.53
36386;BME280;24125;47.482;8.770;2022-11-20T10:24:50;96003.72;;;13.53;66.52
36386;BME280;24125;47.482;8.770;2022-11-20T10:27:38;96010.78;;;13.61;66.27
36386;BME280;24125;47.482;8.770;2022-11-20T10:30:17;96007.09;;;13.66;65.65
36386;BME280;24125;47.482;8.770;2022-11-20T10:32:54;96007.16;;;13.69;65.47
36386;BME280;24125;47.482;8.770;2022-11-20T10:35:32;96011.81;;;13.72;66.08
36386;BME280;24125;47.482;8.770;2022-11-20T10:38:14;96005.75;;;13.75;65.53
36386;BME280;24125;47.482;8.770;2022-11-20T10:40:54;96010.06;;;13.80;65.77
36386;BME280;24125;47.482;8.770;2022-11-20T10:43:52;96001.41;;;13.86;66.67
36386;BME280;24125;47.482;8.770;2022-11-20T10:46:32;96006.56;;;13.95;66.31
36386;BME280;24125;47.482;8.770;2022-11-20T10:49:14;96001.44;;;14.06;66.26
36386;BME280;24125;47.482;8.770;2022-11-20T10:51:56;95998.22;;;14.16;66.55
36386;BME280;24125;47.482;8.770;2022-11-20T10:54:36;95996.09;;;14.25;65.55
36386;BME280;24125;47.482;8.770;2022-11-20T10:57:21;95995.88;;;14.33;65.41
36386;BME280;24125;47.482;8.770;2022-11-20T11:00:04;95994.16;;;14.41;65.35
36386;BME280;24125;47.482;8.770;2022-11-20T11:02:41;95986.56;;;14.47;64.91
36386;BME280;24125;47.482;8.770;2022-11-20T11:05:25;95985.19;;;14.53;65.29
36386;BME280;24125;47.482;8.770;2022-11-20T11:08:00;95986.78;;;14.57;65.06
36386;BME280;24125;47.482;8.770;2022-11-20T11:10:39;95975.34;;;14.60;64.53
36386;BME280;24125;47.482;8.770;2022-11-20T11:13:24;95972.34;;;14.65;64.63
36386;BME280;24125;47.482;8.770;2022-11-20T11:15:57;95967.41;;;14.67;65.07
36386;BME280;24125;47.482;8.770;2022-11-20T11:18:32;95964.00;;;14.70;64.70
36386;BME280;24125;47.482;8.770;2022-11-20T11:21:05;95965.63;;;14.75;64.76
36386;BME280;24125;47.482;8.770;2022-11-20T11:23:39;95968.00;;;14.80;64.79
36386;BME280;24125;47.482;8.770;2022-11-20T11:26:20;95964.25;;;14.85;63.06
36386;BME280;24125;47.482;8.770;2022-11-20T11:28:56;95947.00;;;14.86;63.52
36386;BME280;24125;47.482;8.770;2022-11-20T11:31:30;95948.13;;;14.85;63.01
36386;BME280;24125;47.482;8.770;2022-11-20T11:34:05;95947.78;;;14.86;63.41
36386;BME280;24125;47.482;8.770;2022-11-20T11:36:38;95938.53;;;14.84;63.44
36386;BME280;24125;47.482;8.770;2022-11-20T11:39:14;95940.84;;;14.85;63.51
36386;BME280;24125;47.482;8.770;2022-11-20T11:41:48;95934.28;;;14.83;63.33
36386;BME280;24125;47.482;8.770;2022-11-20T11:44:26;95934.34;;;14.86;63.27
36386;BME280;24125;47.482;8.770;2022-11-20T11:47:22;95933.97;;;14.88;63.22
36386;BME280;24125;47.482;8.770;2022-11-20T11:50:13;95926.34;;;14.90;62.48
36386;BME280;24125;47.482;8.770;2022-11-20T11:52:54;95928.66;;;14.91;62.87
36386;BME280;24125;47.482;8.770;2022-11-20T11:55:33;95915.56;;;14.90;62.74
36386;BME280;24125;47.482;8.770;2022-11-20T11:58:16;95912.13;;;14.89;61.95
36386;BME280;24125;47.482;8.770;2022-11-20T12:00:56;95910.50;;;14.85;62.03
36386;BME280;24125;47.482;8.770;2022-11-20T12:03:34;95907.75;;;14.81;61.78
36386;BME280;24125;47.482;8.770;2022-11-20T12:06:11;95906.50;;;14.75;61.56
36386;BME280;24125;47.482;8.770;2022-11-20T12:08:49;95906.38;;;14.68;61.94
36386;BME280;24125;47.482;8.770;2022-11-20T12:11:33;95905.53;;;14.64;62.32
36386;BME280;24125;47.482;8.770;2022-11-20T12:14:13;95895.16;;;14.62;62.62
36386;BME280;24125;47.482;8.770;2022-11-20T12:16:48;95889.00;;;14.62;63.29
36386;BME280;24125;47.482;8.770;2022-11-20T12:19:21;95887.16;;;14.66;63.82
36386;BME280;24125;47.482;8.770;2022-11-20T12:22:02;95880.00;;;14.73;63.45
36386;BME280;24125;47.482;8.770;2022-11-20T12:24:45;95876.28;;;14.82;63.50
36386;BME280;24125;47.482;8.770;2022-11-20T12:27:43;95877.66;;;14.95;64.36
36386;BME280;24125;47.482;8.770;2022-11-20T12:30:19;95874.34;;;15.05;63.69
36386;BME280;24125;47.482;8.770;2022-11-20T12:35:53;95875.47;;;15.27;61.70
36386;BME280;24125;47.482;8.770;2022-11-20T12:41:54;95869.09;;;15.38;61.37
36386;BME280;24125;47.482;8.770;2022-11-20T12:45:05;95864.13;;;15.40;61.45
36386;BME280;24125;47.482;8.770;2022-11-20T12:47:50;95863.34;;;15.40;64.86
36386;BME280;24125;47.482;8.770;2022-11-20T12:50:34;95857.25;;;15.43;61.95
36386;BME280;24125;47.482;8.770;2022-11-20T12:53:34;95849.16;;;15.43;61.64
36386;BME280;24125;47.482;8.770;2022-11-20T12:56:18;95851.88;;;15.43;60.30
36386;BME280;24125;47.482;8.770;2022-11-20T12:59:02;95846.84;;;15.41;60.62
36386;BME280;24125;47.482;8.770;2022-11-20T13:01:45;95844.16;;;15.41;60.77
36386;BME280;24125;47.482;8.770;2022-11-20T13:04:34;95845.28;;;15.40;59.88
36386;BME280;24125;47.482;8.770;2022-11-20T13:07:14;95844.13;;;15.38;60.14
36386;BME280;24125;47.482;8.770;2022-11-20T13:09:50;95858.63;;;15.33;59.64
36386;BME280;24125;47.482;8.770;2022-11-20T13:12:28;95846.22;;;15.25;59.48
36386;BME280;24125;47.482;8.770;2022-11-20T13:15:08;95842.25;;;15.16;58.80
36386;BME280;24125;47.482;8.770;2022-11-20T13:17:51;95837.09;;;15.03;58.37
36386;BME280;24125;47.482;8.770;2022-11-20T13:20:26;95839.91;;;14.88;58.66
36386;BME280;24125;47.482;8.770;2022-11-20T13:23:00;95829.28;;;14.72;58.38
36386;BME280;24125;47.482;8.770;2022-11-20T13:25:35;95823.22;;;14.52;58.79
36386;BME280;24125;47.482;8.770;2022-11-20T13:28:27;95811.78;;;14.36;58.57
36386;BME280;24125;47.482;8.770;2022-11-20T13:31:01;95817.22;;;14.17;59.29
36386;BME280;24125;47.482;8.770;2022-11-20T13:33:35;95822.31;;;14.03;59.24
36386;BME280;24125;47.482;8.770;2022-11-20T13:36:22;95818.22;;;13.89;59.69
36386;BME280;24125;47.482;8.770;2022-11-20T13:38:56;95814.06;;;13.73;59.32
36386;BME280;24125;47.482;8.770;2022-11-20T13:41:31;95802.28;;;13.58;60.18
36386;BME280;24125;47.482;8.770;2022-11-20T13:44:13;95810.81;;;13.44;59.70
36386;BME280;24125;47.482;8.770;2022-11-20T13:46:47;95797.47;;;13.29;60.33
36386;BME280;24125;47.482;8.770;2022-11-20T13:49:26;95807.19;;;13.17;60.34
36386;BME280;24125;47.482;8.770;2022-11-20T13:52:08;95810.38;;;13.07;60.86
36386;BME280;24125;47.482;8.770;2022-11-20T13:55:05;95801.41;;;13.00;61.24
36386;BME280;24125;47.482;8.770;2022-11-20T13:58:05;95802.91;;;12.97;61.90
36386;BME280;24125;47.482;8.770;2022-11-20T14:00:50;95804.00;;;12.96;62.05
36386;BME280;24125;47.482;8.770;2022-11-20T14:03:25;95798.22;;;12.94;62.54